F/V Kadege — FOWB — position and weather

sailwx.info

Track history (hours):
 
Tides and Currents Weather Stations Pressure Air Temp Water Temp Dewpoint Dewpoint Depression Visibility Wind Speed Wind Dir Waves Ship Positions

F/V Kadege

Last reported at 2017-Sep-19 04:13 UTC. Time now 2017-Sep-22 20:48 UTC.
Position N 47°54' W 004°33'.

Length 15 m; draft 3 m.

Type: Fishing. MMSI: 226084000.

Date/timePositionNaut miles runAvg speedWind from/ knotsBaromVisibWave heightAir tempDewpointWater temp
2017-Sep-19 04:13N 47°54' W 004°33'2 9.2
2017-Sep-19 03:58N 47°55' W 004°35'4 9.5
2017-Sep-19 03:30N 47°59' W 004°40'510.4
2017-Sep-19 03:00N 48°02' W 004°46'4 9.0
2017-Sep-19 02:30N 48°07' W 004°46'4 8.6
2017-Sep-19 02:00N 48°11' W 004°47'4 8.4
2017-Sep-19 01:30N 48°15' W 004°47'4 8.3
2017-Sep-19 01:00N 48°19' W 004°47'3 0.3
2017-Sep-18 17:06N 48°22' W 004°47'0 0.2
2017-Sep-18 17:00N 48°22' W 004°47'0 0.0
2017-Sep-18 16:30N 48°22' W 004°47'0 0.0
2017-Sep-18 16:00N 48°22' W 004°47'0 0.0
2017-Sep-18 15:30N 48°22' W 004°47'0 0.0
2017-Sep-18 15:00N 48°22' W 004°47'0 0.0
2017-Sep-18 14:30N 48°22' W 004°47'3 6.7
2017-Sep-18 14:00N 48°24' W 004°51'4 8.6
2017-Sep-18 13:30N 48°27' W 004°55'5 9.2
2017-Sep-18 13:00N 48°29' W 005°01'10 0.9
2017-Sep-18 02:01N 48°19' W 005°06'0 8.2
2017-Sep-18 02:00N 48°19' W 005°06'4 8.7
2017-Sep-18 01:30N 48°19' W 004°59'4 8.4
2017-Sep-18 01:00N 48°20' W 004°53'4 7.3
2017-Sep-18 00:31N 48°21' W 004°48'1 0.1
2017-Sep-17 13:47N 48°22' W 004°47'0 0.1
2017-Sep-17 13:30N 48°22' W 004°47'2 3.1
2017-Sep-17 13:00N 48°22' W 004°49'5 8.8
2017-Sep-17 12:28N 48°21' W 004°56'6 0.5
2017-Sep-17 01:44N 48°23' W 005°05'2 8.6
2017-Sep-17 01:29N 48°22' W 005°02'4 8.1
2017-Sep-17 01:00N 48°21' W 004°56'4 7.9
2017-Sep-17 00:30N 48°22' W 004°50'2 0.2
2017-Sep-16 15:43N 48°22' W 004°47'0 0.0
2017-Sep-16 15:30N 48°22' W 004°47'0 0.0
2017-Sep-16 15:00N 48°22' W 004°47'2 3.4
2017-Sep-16 14:30N 48°22' W 004°49'4 7.6
2017-Sep-16 14:00N 48°22' W 004°55'7 0.6
2017-Sep-16 02:00N 48°20' W 005°06'4 8.1
2017-Sep-16 01:30N 48°20' W 005°00'4 8.2
2017-Sep-16 01:00N 48°20' W 004°54'4 8.3
2017-Sep-16 00:30N 48°21' W 004°48'1 0.1
2017-Sep-15 13:30N 48°22' W 004°47'0 0.1
2017-Sep-15 13:00N 48°22' W 004°47'1 2.8
2017-Sep-15 12:30N 48°23' W 004°48'5 9.2
2017-Sep-15 12:00N 48°26' W 004°53'4 8.7
2017-Sep-15 11:30N 48°29' W 004°58'16 1.4
2017-Sep-15 00:09N 48°27' W 005°22'1 8.1
2017-Sep-14 23:58N 48°27' W 005°19'4 8.1
2017-Sep-14 23:29N 48°27' W 005°14'4 8.3
2017-Sep-14 23:00N 48°27' W 005°08'1 2.1
2017-Sep-14 22:30N 48°27' W 005°06'0 0.0
2017-Sep-14 22:00N 48°27' W 005°06'0 0.0
2017-Sep-14 21:30N 48°27' W 005°06'0 0.0
2017-Sep-14 21:00N 48°27' W 005°06'0 0.0
2017-Sep-14 20:30N 48°27' W 005°06'0 0.0
2017-Sep-14 20:00N 48°27' W 005°06'0 0.0
2017-Sep-14 19:30N 48°27' W 005°06'0 0.0
2017-Sep-14 19:00N 48°27' W 005°06'0 0.0
2017-Sep-14 18:30N 48°27' W 005°06'0 0.0
2017-Sep-14 18:00N 48°27' W 005°06'10 0.8
2017-Sep-14 06:00N 48°26' W 005°21'11 4.0
2017-Sep-14 03:22N 48°20' W 005°07'2 6.6
2017-Sep-14 03:00N 48°20' W 005°03'3 6.8
2017-Sep-14 02:30N 48°20' W 004°58'4 7.5
2017-Sep-14 02:00N 48°20' W 004°53'4 8.1
2017-Sep-14 01:30N 48°22' W 004°47'0 0.0
2017-Sep-13 08:51N 48°22' W 004°47'0 0.0
2017-Sep-13 08:30N 48°22' W 004°47'0 0.0
2017-Sep-13 08:00N 48°22' W 004°47'0 0.0
2017-Sep-13 07:30N 48°22' W 004°47'0 0.0
2017-Sep-13 07:00N 48°22' W 004°47'0 0.0
2017-Sep-13 06:30N 48°22' W 004°47'0 0.1
2017-Sep-13 05:59N 48°22' W 004°47'0 0.0
2017-Sep-13 05:30N 48°22' W 004°47'0 0.0
2017-Sep-12 17:57N 48°22' W 004°47'1 2.4
2017-Sep-12 17:30N 48°21' W 004°48'5 9.5
2017-Sep-12 17:00N 48°19' W 004°54'4 7.9
2017-Sep-12 16:29N 48°18' W 005°00'5 0.3
2017-Sep-12 01:43N 48°19' W 005°07'2 7.3
2017-Sep-12 01:28N 48°19' W 005°05'4 7.5
2017-Sep-12 01:00N 48°19' W 004°59'4 8.3
2017-Sep-12 00:30N 48°20' W 004°53'4 8.5
2017-Sep-12 00:00N 48°21' W 004°47'  
Track history (hours):
 
Tides and Currents Weather Stations Pressure Air Temp Water Temp Dewpoint Dewpoint Depression Visibility Wind Speed Wind Dir Waves Ship Positions

F/V Kadege

Last reported at 2017-Sep-19 04:13 UTC. Time now 2017-Sep-22 20:48 UTC.
Position N 47°54' W 004°33'.

Length 15 m; draft 3 m.

Type: Fishing. MMSI: 226084000.

Date/timePositionNaut miles runAvg speedWind from/ knotsBaromVisibWave heightAir tempDewpointWater temp
2017-Sep-19 04:13N 47°54' W 004°33'2 9.2
2017-Sep-19 03:58N 47°55' W 004°35'4 9.5
2017-Sep-19 03:30N 47°59' W 004°40'510.4
2017-Sep-19 03:00N 48°02' W 004°46'4 9.0
2017-Sep-19 02:30N 48°07' W 004°46'4 8.6
2017-Sep-19 02:00N 48°11' W 004°47'4 8.4
2017-Sep-19 01:30N 48°15' W 004°47'4 8.3
2017-Sep-19 01:00N 48°19' W 004°47'3 0.3
2017-Sep-18 17:06N 48°22' W 004°47'0 0.2
2017-Sep-18 17:00N 48°22' W 004°47'0 0.0
2017-Sep-18 16:30N 48°22' W 004°47'0 0.0
2017-Sep-18 16:00N 48°22' W 004°47'0 0.0
2017-Sep-18 15:30N 48°22' W 004°47'0 0.0
2017-Sep-18 15:00N 48°22' W 004°47'0 0.0
2017-Sep-18 14:30N 48°22' W 004°47'3 6.7
2017-Sep-18 14:00N 48°24' W 004°51'4 8.6
2017-Sep-18 13:30N 48°27' W 004°55'5 9.2
2017-Sep-18 13:00N 48°29' W 005°01'10 0.9
2017-Sep-18 02:01N 48°19' W 005°06'0 8.2
2017-Sep-18 02:00N 48°19' W 005°06'4 8.7
2017-Sep-18 01:30N 48°19' W 004°59'4 8.4
2017-Sep-18 01:00N 48°20' W 004°53'4 7.3
2017-Sep-18 00:31N 48°21' W 004°48'1 0.1
2017-Sep-17 13:47N 48°22' W 004°47'0 0.1
2017-Sep-17 13:30N 48°22' W 004°47'2 3.1
2017-Sep-17 13:00N 48°22' W 004°49'5 8.8
2017-Sep-17 12:28N 48°21' W 004°56'6 0.5
2017-Sep-17 01:44N 48°23' W 005°05'2 8.6
2017-Sep-17 01:29N 48°22' W 005°02'4 8.1
2017-Sep-17 01:00N 48°21' W 004°56'4 7.9
2017-Sep-17 00:30N 48°22' W 004°50'2 0.2
2017-Sep-16 15:43N 48°22' W 004°47'0 0.0
2017-Sep-16 15:30N 48°22' W 004°47'0 0.0
2017-Sep-16 15:00N 48°22' W 004°47'2 3.4
2017-Sep-16 14:30N 48°22' W 004°49'4 7.6
2017-Sep-16 14:00N 48°22' W 004°55'7 0.6
2017-Sep-16 02:00N 48°20' W 005°06'4 8.1
2017-Sep-16 01:30N 48°20' W 005°00'4 8.2
2017-Sep-16 01:00N 48°20' W 004°54'4 8.3
2017-Sep-16 00:30N 48°21' W 004°48'1 0.1
2017-Sep-15 13:30N 48°22' W 004°47'0 0.1
2017-Sep-15 13:00N 48°22' W 004°47'1 2.8
2017-Sep-15 12:30N 48°23' W 004°48'5 9.2
2017-Sep-15 12:00N 48°26' W 004°53'4 8.7
2017-Sep-15 11:30N 48°29' W 004°58'16 1.4
2017-Sep-15 00:09N 48°27' W 005°22'1 8.1
2017-Sep-14 23:58N 48°27' W 005°19'4 8.1
2017-Sep-14 23:29N 48°27' W 005°14'4 8.3
2017-Sep-14 23:00N 48°27' W 005°08'1 2.1
2017-Sep-14 22:30N 48°27' W 005°06'0 0.0
2017-Sep-14 22:00N 48°27' W 005°06'0 0.0
2017-Sep-14 21:30N 48°27' W 005°06'0 0.0
2017-Sep-14 21:00N 48°27' W 005°06'0 0.0
2017-Sep-14 20:30N 48°27' W 005°06'0 0.0
2017-Sep-14 20:00N 48°27' W 005°06'0 0.0
2017-Sep-14 19:30N 48°27' W 005°06'0 0.0
2017-Sep-14 19:00N 48°27' W 005°06'0 0.0
2017-Sep-14 18:30N 48°27' W 005°06'0 0.0
2017-Sep-14 18:00N 48°27' W 005°06'10 0.8
2017-Sep-14 06:00N 48°26' W 005°21'11 4.0
2017-Sep-14 03:22N 48°20' W 005°07'2 6.6
2017-Sep-14 03:00N 48°20' W 005°03'3 6.8
2017-Sep-14 02:30N 48°20' W 004°58'4 7.5
2017-Sep-14 02:00N 48°20' W 004°53'4 8.1
2017-Sep-14 01:30N 48°22' W 004°47'0 0.0
2017-Sep-13 08:51N 48°22' W 004°47'0 0.0
2017-Sep-13 08:30N 48°22' W 004°47'0 0.0
2017-Sep-13 08:00N 48°22' W 004°47'0 0.0
2017-Sep-13 07:30N 48°22' W 004°47'0 0.0
2017-Sep-13 07:00N 48°22' W 004°47'0 0.0
2017-Sep-13 06:30N 48°22' W 004°47'0 0.1
2017-Sep-13 05:59N 48°22' W 004°47'0 0.0
2017-Sep-13 05:30N 48°22' W 004°47'0 0.0
2017-Sep-12 17:57N 48°22' W 004°47'1 2.4
2017-Sep-12 17:30N 48°21' W 004°48'5 9.5
2017-Sep-12 17:00N 48°19' W 004°54'4 7.9
2017-Sep-12 16:29N 48°18' W 005°00'5 0.3
2017-Sep-12 01:43N 48°19' W 005°07'2 7.3
2017-Sep-12 01:28N 48°19' W 005°05'4 7.5
2017-Sep-12 01:00N 48°19' W 004°59'4 8.3
2017-Sep-12 00:30N 48°20' W 004°53'4 8.5
2017-Sep-12 00:00N 48°21' W 004°47'  

Dump ship's entire track history